createdAt,value
2023-01-28T00:01:43.307Z,25.3
2023-01-28T00:07:06.027Z,24.8
2023-01-28T00:12:28.719Z,26.3
2023-01-28T00:17:51.155Z,26.2
2023-01-28T00:23:14.003Z,24.8
2023-01-28T00:28:36.994Z,25.8
2023-01-28T00:34:00.361Z,27.3
2023-01-28T00:39:22.951Z,23.9
2023-01-28T00:44:45.696Z,25.4
2023-01-28T00:49:52.658Z,27.3
2023-01-28T00:55:15.597Z,24.9
2023-01-28T01:00:38.438Z,25.2
2023-01-28T01:06:02.976Z,26.7
2023-01-28T01:11:26.134Z,25.2
2023-01-28T01:16:49.349Z,24.7
2023-01-28T01:22:11.248Z,26.3
2023-01-28T01:27:33.862Z,26.2
2023-01-28T01:32:56.571Z,24.7
2023-01-28T01:38:20.094Z,25.9
2023-01-28T01:43:27.600Z,27.4
2023-01-28T01:48:35.537Z,24.8
2023-01-28T01:53:57.878Z,25.6
2023-01-28T01:59:20.716Z,26.8
2023-01-28T02:04:43.626Z,25.1
2023-01-28T02:09:50.710Z,24.7
2023-01-28T02:15:22.460Z,26.4
2023-01-28T02:20:29.068Z,25.6
2023-01-28T02:25:36.347Z,24.6
2023-01-28T02:30:43.889Z,26.2
2023-01-28T02:35:51.478Z,27.4
2023-01-28T02:40:42.727Z,24.8
2023-01-28T02:45:35.007Z,25.7
2023-01-28T02:50:25.914Z,26.9
2023-01-28T02:55:17.469Z,25.9
2023-01-28T03:00:24.565Z,23.3
2023-01-28T03:05:32.836Z,26.1
2023-01-28T03:10:40.220Z,26.2
2023-01-28T03:16:02.120Z,24.6
2023-01-28T03:21:24.660Z,26.1
2023-01-28T03:26:46.829Z,26.8
2023-01-28T03:32:11.021Z,24.7
2023-01-28T03:37:18.061Z,26.2
2023-01-28T03:42:24.881Z,27.4
2023-01-28T03:47:32.692Z,24.7
2023-01-28T03:52:55.499Z,25.9
2023-01-28T03:58:20.346Z,27.3
2023-01-28T04:03:42.599Z,24.8
2023-01-28T04:09:05.043Z,25.8
2023-01-28T04:13:40.632Z,27.2
2023-01-28T04:18:31.482Z,24.9
2023-01-28T04:23:23.332Z,25.2
2023-01-28T04:28:30.246Z,26.5
2023-01-28T04:33:53.455Z,25.9
2023-01-28T04:39:15.865Z,24.6
2023-01-28T04:44:38.369Z,26.3
2023-01-28T04:49:45.276Z,26.4
2023-01-28T04:55:07.871Z,24.6
2023-01-28T05:00:30.312Z,26.1
2023-01-28T05:05:53.374Z,27.3
2023-01-28T05:11:15.059Z,23.6
2023-01-28T05:16:38.019Z,25.9
2023-01-28T05:22:00.979Z,26.9
2023-01-28T05:27:23.176Z,24.7
2023-01-28T05:32:45.911Z,26
2023-01-28T05:38:08.033Z,27.4
2023-01-28T05:43:30.514Z,24.6
2023-01-28T05:48:54.943Z,25.9
2023-01-28T05:54:01.677Z,27.3
2023-01-28T05:59:24.638Z,24.8
2023-01-28T06:04:47.885Z,25.7
2023-01-28T06:09:55.365Z,27.1
2023-01-28T06:15:02.637Z,24.9
2023-01-28T06:20:25.228Z,25.5
2023-01-28T06:25:47.269Z,26.7
2023-01-28T06:30:53.884Z,25.4
2023-01-28T06:36:01.107Z,24.6
2023-01-28T06:40:52.833Z,26.4
2023-01-28T06:46:00.106Z,27.1
2023-01-28T06:51:25.502Z,24.6
2023-01-28T06:56:50.323Z,26.1
2023-01-28T07:02:13.759Z,27.4
2023-01-28T07:07:36.359Z,24.7
2023-01-28T07:12:58.802Z,25.9
2023-01-28T07:18:22.138Z,27.3
2023-01-28T07:23:47.491Z,24.1
2023-01-28T07:29:09.998Z,25.5
2023-01-28T07:34:33.354Z,27.1
2023-01-28T07:39:55.225Z,24.7
2023-01-28T07:45:17.711Z,25.5
2023-01-28T07:50:24.681Z,26.9
2023-01-28T07:55:49.961Z,25.1
2023-01-28T08:01:12.184Z,25.4
2023-01-28T08:06:35.370Z,26.7
2023-01-28T08:11:58.389Z,25.1
2023-01-28T08:17:20.956Z,24.6
2023-01-28T08:22:43.021Z,26.4
2023-01-28T08:28:06.179Z,25.8
2023-01-28T08:33:29.654Z,24.4
2023-01-28T08:38:51.751Z,26.3
2023-01-28T08:44:13.865Z,26.6
2023-01-28T08:49:39.177Z,24.4
2023-01-28T08:55:04.346Z,26.1
2023-01-28T09:00:29.602Z,27.2
2023-01-28T09:06:11.041Z,24.4
2023-01-28T09:11:32.971Z,26.2
2023-01-28T09:16:55.962Z,27.5
2023-01-28T09:22:20.251Z,24.2
2023-01-28T09:27:28.084Z,25.6
2023-01-28T09:32:53.013Z,27.2
2023-01-28T09:38:15.864Z,24.6
2023-01-28T09:43:38.356Z,25.7
2023-01-28T09:49:01.296Z,27.2
2023-01-28T09:54:25.116Z,24.6
2023-01-28T09:59:47.783Z,25.7
2023-01-28T10:05:11.991Z,27.1
2023-01-28T10:10:35.111Z,24.8
2023-01-28T10:15:57.705Z,25.6
2023-01-28T10:21:37.307Z,26.9
2023-01-28T10:26:59.750Z,24.9
2023-01-28T10:32:22.660Z,24.4
2023-01-28T10:37:45.654Z,24.8
2023-01-28T10:43:22.300Z,24.1
2023-01-28T10:48:44.602Z,23.8
2023-01-28T10:54:07.588Z,23.8
2023-01-28T10:59:15.078Z,25.6
2023-01-28T11:04:38.301Z,27.1
2023-01-28T11:10:15.763Z,24.6
2023-01-28T11:15:23.080Z,24.1
2023-01-28T11:20:46.081Z,24.5
2023-01-28T11:26:08.263Z,23.9
2023-01-28T11:31:31.221Z,23.6
2023-01-28T11:36:55.631Z,24
2023-01-28T11:42:20.291Z,25.9
2023-01-28T11:47:47.135Z,27.3
2023-01-28T11:53:39.577Z,24.4
2023-01-28T11:59:02.292Z,24.7
2023-01-28T12:04:25.495Z,24.3
2023-01-28T12:09:48.657Z,23.6
2023-01-28T12:15:11.109Z,23
2023-01-28T12:20:18.279Z,22.4
2023-01-28T12:25:41.293Z,21.9
2023-01-28T12:31:04.885Z,21.4
2023-01-28T12:36:28.337Z,20.9
2023-01-28T12:41:51.115Z,20.4
2023-01-28T12:47:13.366Z,20
2023-01-28T12:52:36.636Z,19.6
2023-01-28T12:57:59.217Z,19.2
2023-01-28T13:03:23.029Z,18.8
2023-01-28T13:08:45.770Z,18.5
2023-01-28T13:14:08.444Z,18.1
2023-01-28T13:19:41.694Z,17.8
2023-01-28T13:25:11.192Z,17.5
2023-01-28T13:30:36.291Z,17.2
2023-01-28T13:35:59.072Z,16.9
2023-01-28T13:41:21.416Z,16.6
2023-01-28T13:46:44.358Z,16.4
2023-01-28T13:52:07.178Z,16.1
2023-01-28T13:57:28.370Z,15.9
2023-01-28T14:02:53.171Z,15.6
2023-01-28T14:08:16.304Z,15.4
2023-01-28T14:13:40.204Z,15.2
2023-01-28T14:19:03.394Z,15.1
2023-01-28T14:24:26.640Z,14.9
2023-01-28T14:29:49.566Z,14.7
2023-01-28T14:35:15.585Z,14.5
2023-01-28T14:40:22.948Z,14.4
2023-01-28T14:45:45.929Z,14.3
2023-01-28T14:51:10.193Z,14.1
2023-01-28T14:56:34.360Z,13.9
2023-01-28T15:01:58.393Z,13.8
2023-01-28T15:07:35.710Z,13.7
2023-01-28T15:12:58.411Z,13.6
2023-01-28T15:18:21.846Z,13.5
2023-01-28T15:23:44.564Z,13.4
2023-01-28T15:29:09.811Z,13.3
2023-01-28T15:34:34.371Z,13.2
2023-01-28T15:39:56.985Z,13.1
2023-01-28T15:45:20.365Z,13.1
2023-01-28T15:50:43.210Z,13.1
2023-01-28T15:56:09.751Z,13
2023-01-28T16:01:33.064Z,13
2023-01-28T16:06:43.659Z,13
2023-01-28T16:12:06.139Z,12.9
2023-01-28T16:17:14.772Z,13
2023-01-28T16:22:38.231Z,13.1
2023-01-28T16:28:02.503Z,13.3
2023-01-28T16:33:28.290Z,13.4
2023-01-28T16:38:31.035Z,13.6
2023-01-28T16:43:27.947Z,13.8
2023-01-28T16:48:58.964Z,13.9
2023-01-28T16:54:23.394Z,14.1
2023-01-28T17:00:06.613Z,14.3
2023-01-28T17:05:30.287Z,14.5
2023-01-28T17:10:53.776Z,14.8
2023-01-28T17:16:17.934Z,14.9
2023-01-28T17:21:27.031Z,15.1
2023-01-28T17:26:35.579Z,15.1
2023-01-28T17:32:01.328Z,15.3
2023-01-28T17:37:25.097Z,15.3
2023-01-28T17:42:50.571Z,15.3
2023-01-28T17:48:16.158Z,15.4
2023-01-28T17:53:46.208Z,15.4
2023-01-28T17:59:16.655Z,15.4
2023-01-28T18:04:48.653Z,15.4
2023-01-28T18:10:15.065Z,15.6
2023-01-28T18:15:43.308Z,15.6
2023-01-28T18:21:10.603Z,15.7
2023-01-28T18:26:49.926Z,15.8
2023-01-28T18:32:26.314Z,15.9
2023-01-28T18:37:41.366Z,16
2023-01-28T18:42:55.887Z,16.1
2023-01-28T18:48:16.036Z,16.3
2023-01-28T18:54:10.686Z,16.4
2023-01-28T18:59:46.832Z,16.6
2023-01-28T19:05:12.050Z,16.8
2023-01-28T19:10:34.193Z,17.1
2023-01-28T19:16:13.004Z,17.1
2023-01-28T19:21:49.809Z,17.2
2023-01-28T19:27:36.708Z,17.2
2023-01-28T19:33:16.028Z,17.2
2023-01-28T19:38:52.075Z,17.2
2023-01-28T19:44:25.329Z,17.2
2023-01-28T19:49:47.135Z,17.2
2023-01-28T19:55:05.005Z,17.2
2023-01-28T20:00:24.226Z,17.2
2023-01-28T20:05:55.572Z,17.1
2023-01-28T20:11:37.005Z,17.1
2023-01-28T20:17:15.660Z,16.9
2023-01-28T20:22:55.087Z,16.8
2023-01-28T20:28:30.865Z,16.7
2023-01-28T20:34:23.488Z,16.6
2023-01-28T20:39:59.640Z,16.4
2023-01-28T20:45:19.670Z,16.3
2023-01-28T20:50:55.740Z,16.1
2023-01-28T20:56:26.226Z,16
2023-01-28T21:02:00.170Z,15.9
2023-01-28T21:07:04.762Z,15.8
2023-01-28T21:12:35.829Z,15.6
2023-01-28T21:17:46.067Z,21.9
2023-01-28T21:22:37.657Z,24.7
2023-01-28T21:27:45.791Z,23.6
2023-01-28T21:32:53.065Z,24.6
2023-01-28T21:38:21.300Z,26.9
2023-01-28T21:43:48.781Z,26.1
2023-01-28T21:48:41.568Z,25.6
2023-01-28T21:53:50.094Z,25.4
2023-01-28T21:59:00.528Z,24.9
2023-01-28T22:04:07.725Z,26.4
2023-01-28T22:09:15.132Z,26.1
2023-01-28T22:14:07.203Z,25.3
2023-01-28T22:18:58.995Z,25.4
2023-01-28T22:24:09.272Z,24.8
2023-01-28T22:29:16.448Z,25.9
2023-01-28T22:34:24.031Z,27.4
2023-01-28T22:39:15.860Z,25.3
2023-01-28T22:44:22.706Z,25.2
2023-01-28T22:49:29.833Z,24.9
2023-01-28T22:54:36.043Z,25.3
2023-01-28T22:59:48.428Z,26.8
2023-01-28T23:05:06.707Z,25.4
2023-01-28T23:10:12.773Z,24.9
2023-01-28T23:15:35.477Z,26.3
2023-01-28T23:20:58.585Z,26.8
2023-01-28T23:25:49.553Z,25
2023-01-28T23:30:57.895Z,25.5
2023-01-28T23:36:05.184Z,26.6
2023-01-28T23:41:12.147Z,25.7
2023-01-28T23:46:39.622Z,24.8
2023-01-28T23:52:03.446Z,25.8
2023-01-28T23:57:25.025Z,27.3
